createdAt,value
2022-10-19T00:01:23.726Z,101906.69
2022-10-19T00:03:56.076Z,101906.44
2022-10-19T00:06:31.471Z,101901.66
2022-10-19T00:09:15.364Z,101911.84
2022-10-19T00:11:47.859Z,101916.25
2022-10-19T00:14:21.933Z,101912.84
2022-10-19T00:16:52.872Z,101911.56
2022-10-19T00:19:28.001Z,101899.81
2022-10-19T00:21:57.567Z,101905.94
2022-10-19T00:24:24.227Z,101900.28
2022-10-19T00:26:50.864Z,101914.28
2022-10-19T00:29:17.864Z,101911.94
2022-10-19T00:31:44.749Z,101914.78
2022-10-19T00:34:12.042Z,101911.06
2022-10-19T00:36:41.564Z,101925.31
2022-10-19T00:39:14.533Z,101909.59
2022-10-19T00:41:46.992Z,101921.13
2022-10-19T00:44:13.758Z,101925.69
2022-10-19T00:46:45.702Z,101925.94
2022-10-19T00:49:26.108Z,101934.28
2022-10-19T00:52:16.206Z,101930.72
2022-10-19T00:54:46.609Z,101926.31
2022-10-19T00:57:15.013Z,101921.03
2022-10-19T00:59:47.411Z,101933.53
2022-10-19T01:02:14.503Z,101930.00
2022-10-19T01:04:51.812Z,101920.56
2022-10-19T01:07:20.616Z,101929.53
2022-10-19T01:09:47.508Z,101925.97
2022-10-19T01:12:41.746Z,101933.81
2022-10-19T01:15:35.088Z,101929.25
2022-10-19T01:18:13.518Z,101933.69
2022-10-19T01:21:26.002Z,101930.25
2022-10-19T01:24:14.257Z,101936.97
2022-10-19T01:27:53.083Z,101937.88
2022-10-19T01:30:54.437Z,101929.03
2022-10-19T01:33:50.679Z,101942.38
2022-10-19T01:36:53.505Z,101940.69
2022-10-19T01:39:59.544Z,101936.88
2022-10-19T01:42:49.586Z,101933.31
2022-10-19T01:45:50.043Z,101936.97
2022-10-19T01:48:34.642Z,101939.81
2022-10-19T01:51:33.881Z,101942.63
2022-10-19T01:54:10.195Z,101935.50
2022-10-19T01:56:45.715Z,101936.50
2022-10-19T01:59:19.625Z,101932.81
2022-10-19T02:01:53.940Z,101941.44
2022-10-19T02:04:24.988Z,101924.50
2022-10-19T02:06:55.441Z,101935.16
2022-10-19T02:09:22.729Z,101938.38
2022-10-19T02:12:00.745Z,101930.47
2022-10-19T02:14:37.164Z,101934.03
2022-10-19T02:17:19.107Z,101938.78
2022-10-19T02:19:46.059Z,101938.41
2022-10-19T02:22:13.918Z,101940.56
2022-10-19T02:24:40.614Z,101937.31
2022-10-19T02:27:09.466Z,101936.91
2022-10-19T02:29:39.726Z,101938.16
2022-10-19T02:32:09.919Z,101945.38
2022-10-19T02:34:39.383Z,101943.66
2022-10-19T02:37:07.480Z,101944.66
2022-10-19T02:39:34.702Z,101943.78
2022-10-19T02:42:23.561Z,101950.38
2022-10-19T02:45:06.816Z,101950.81
2022-10-19T02:48:00.788Z,101953.00
2022-10-19T02:50:29.146Z,101958.38
2022-10-19T02:52:59.715Z,101955.38
2022-10-19T02:55:26.444Z,101965.75
2022-10-19T02:57:53.795Z,101967.16
2022-10-19T03:00:20.759Z,101966.41
2022-10-19T03:02:50.150Z,101958.44
2022-10-19T03:05:17.013Z,101968.50
2022-10-19T03:07:43.871Z,101963.41
2022-10-19T03:10:10.803Z,101975.47
2022-10-19T03:12:37.557Z,101965.34
2022-10-19T03:15:05.585Z,101981.47
2022-10-19T03:17:32.624Z,101978.19
2022-10-19T03:19:59.691Z,101980.53
2022-10-19T03:22:26.406Z,101979.59
2022-10-19T03:24:53.121Z,101973.44
2022-10-19T03:27:19.837Z,101982.78
2022-10-19T03:29:46.548Z,101974.50
2022-10-19T03:32:13.287Z,101987.28
2022-10-19T03:34:40.019Z,101986.59
2022-10-19T03:37:08.487Z,101983.31
2022-10-19T03:39:35.751Z,101981.13
2022-10-19T03:42:02.405Z,101994.03
2022-10-19T03:44:29.173Z,101987.44
2022-10-19T03:46:56.101Z,101991.25
2022-10-19T03:49:22.830Z,101987.50
2022-10-19T03:51:49.703Z,102000.84
2022-10-19T03:54:17.579Z,101991.03
2022-10-19T03:56:44.599Z,101993.38
2022-10-19T03:59:15.838Z,101991.66
2022-10-19T04:01:48.295Z,102000.38
2022-10-19T04:04:18.969Z,101998.66
2022-10-19T04:06:49.896Z,101998.78
2022-10-19T04:09:21.632Z,101997.56
2022-10-19T04:11:50.240Z,101997.44
2022-10-19T04:14:31.655Z,102003.47
2022-10-19T04:17:03.074Z,102006.91
2022-10-19T04:19:30.023Z,102011.19
2022-10-19T04:21:56.951Z,102010.09
2022-10-19T04:24:24.037Z,102010.09
2022-10-19T04:26:54.971Z,102017.97
2022-10-19T04:29:29.518Z,102015.88
2022-10-19T04:31:58.930Z,102015.28
2022-10-19T04:34:25.705Z,102021.63
2022-10-19T04:36:53.972Z,102017.31
2022-10-19T04:39:23.811Z,102027.38
2022-10-19T04:41:50.532Z,102026.28
2022-10-19T04:44:17.304Z,102027.13
2022-10-19T04:46:43.994Z,102027.38
2022-10-19T04:49:10.864Z,102025.28
2022-10-19T04:51:40.160Z,102032.06
2022-10-19T04:54:06.888Z,102026.69
2022-10-19T05:18:06.032Z,102045.84
2022-10-19T05:20:32.892Z,102055.78
2022-10-19T05:23:06.234Z,102054.81
2022-10-19T05:25:38.500Z,102058.72
2022-10-19T05:33:33.935Z,102063.09
2022-10-19T05:36:10.637Z,102073.03
2022-10-19T05:41:20.641Z,102071.53
2022-10-19T05:52:00.783Z,102072.00
2022-10-19T06:35:03.473Z,102111.53
2022-10-19T06:40:12.256Z,102113.88
2022-10-19T06:48:07.629Z,102115.50
2022-10-19T06:50:46.508Z,102110.88
2022-10-19T06:55:58.799Z,102110.03
2022-10-19T07:11:59.772Z,102125.91
2022-10-19T07:14:32.308Z,102137.50
2022-10-19T07:19:39.917Z,102138.53
2022-10-19T07:22:09.017Z,102140.31
2022-10-19T07:24:36.301Z,102143.25
2022-10-19T07:32:25.297Z,102153.16
2022-10-19T07:37:38.974Z,102159.78
2022-10-19T07:45:33.053Z,102170.84
2022-10-19T07:48:00.792Z,102178.28
2022-10-19T07:53:11.816Z,102180.31
2022-10-19T08:06:55.646Z,102185.69
2022-10-19T08:09:50.965Z,102178.41
2022-10-19T08:12:14.619Z,102183.28
2022-10-19T08:54:04.951Z,102226.97
2022-10-19T09:00:08.309Z,102221.63
2022-10-19T09:03:13.258Z,102223.09
2022-10-19T09:06:40.838Z,102221.75
2022-10-19T09:09:14.618Z,102215.50
2022-10-19T09:15:27.591Z,102231.41
2022-10-19T09:17:56.986Z,102232.88
2022-10-19T09:20:44.822Z,102226.16
2022-10-19T09:29:46.240Z,102223.63
2022-10-19T09:35:43.648Z,102232.84
2022-10-19T09:38:19.825Z,102239.03
2022-10-19T09:40:46.683Z,102248.22
2022-10-19T09:43:21.100Z,102248.63
2022-10-19T09:46:11.599Z,102251.06
2022-10-19T09:48:59.088Z,102258.41
2022-10-19T09:51:26.287Z,102255.91
2022-10-19T10:05:15.685Z,102283.63
2022-10-19T10:16:16.431Z,102272.81
2022-10-19T10:19:05.316Z,102280.38
2022-10-19T10:21:50.875Z,102279.59
2022-10-19T10:24:22.738Z,102281.53
2022-10-19T10:26:59.942Z,102283.88
2022-10-19T10:29:36.980Z,102285.03
2022-10-19T10:35:01.350Z,102289.47
2022-10-19T10:40:32.569Z,102283.34
2022-10-19T10:49:32.177Z,102272.38
2022-10-19T10:52:09.852Z,102268.22
2022-10-19T11:00:16.493Z,102262.91
2022-10-19T11:03:05.120Z,102263.72
2022-10-19T11:05:48.153Z,102265.88
2022-10-19T11:08:51.462Z,102268.22
2022-10-19T11:11:30.489Z,102256.06
2022-10-19T11:14:23.632Z,102260.59
2022-10-19T11:16:55.359Z,102262.25
2022-10-19T11:19:31.602Z,102258.56
2022-10-19T11:22:44.756Z,102269.69
2022-10-19T11:25:53.547Z,102262.34
2022-10-19T11:28:32.201Z,102257.03
2022-10-19T11:31:29.711Z,102257.22
2022-10-19T11:34:49.466Z,102257.06
2022-10-19T11:37:37.537Z,102257.56
2022-10-19T11:41:19.396Z,102255.78
2022-10-19T11:44:15.797Z,102261.28
2022-10-19T11:47:30.160Z,102256.81
2022-10-19T11:50:25.069Z,102250.66
2022-10-19T11:53:25.860Z,102249.91
2022-10-19T11:57:02.218Z,102246.41
2022-10-19T12:00:34.172Z,102237.56
2022-10-19T12:03:52.001Z,102230.78
2022-10-19T12:07:16.885Z,102229.94
2022-10-19T12:10:11.860Z,102221.16
2022-10-19T12:12:47.743Z,102216.72
2022-10-19T12:15:48.278Z,102221.38
2022-10-19T12:18:55.646Z,102214.81
2022-10-19T12:21:40.810Z,102212.69
2022-10-19T12:24:22.745Z,102212.75
2022-10-19T12:26:54.125Z,102201.59
2022-10-19T12:29:33.232Z,102205.19
2022-10-19T12:32:04.721Z,102199.06
2022-10-19T12:35:00.494Z,102195.50
2022-10-19T12:37:50.569Z,102197.78
2022-10-19T12:40:38.576Z,102190.47
2022-10-19T12:43:24.433Z,102189.34
2022-10-19T12:46:06.384Z,102183.75
2022-10-19T12:48:36.271Z,102186.03
2022-10-19T12:51:11.894Z,102190.47
2022-10-19T12:53:47.709Z,102179.16
2022-10-19T12:56:27.286Z,102177.47
2022-10-19T12:59:01.627Z,102182.47
2022-10-19T13:01:34.272Z,102179.03
2022-10-19T13:04:24.786Z,102182.19
2022-10-19T13:06:57.819Z,102174.88
2022-10-19T13:09:34.531Z,102170.75
2022-10-19T13:12:32.948Z,102167.88
2022-10-19T13:15:04.782Z,102171.91
2022-10-19T13:17:34.843Z,102166.59
2022-10-19T13:20:14.175Z,102165.88
2022-10-19T13:22:50.153Z,102160.47
2022-10-19T13:25:17.033Z,102158.47
2022-10-19T13:27:46.852Z,102152.59
2022-10-19T13:30:35.475Z,102158.88
2022-10-19T13:33:33.018Z,102154.19
2022-10-19T13:35:59.589Z,102161.75
2022-10-19T13:38:50.649Z,102151.03
2022-10-19T13:41:21.693Z,102145.72
2022-10-19T13:44:16.653Z,102151.59
2022-10-19T13:47:29.399Z,102157.19
2022-10-19T13:51:06.329Z,102153.50
2022-10-19T13:54:00.852Z,102144.63
2022-10-19T13:56:50.705Z,102146.19
2022-10-19T13:59:53.772Z,102156.88
2022-10-19T14:02:48.108Z,102151.16
2022-10-19T14:06:22.352Z,102150.72
2022-10-19T14:09:12.917Z,102157.59
2022-10-19T14:11:51.663Z,102150.84
2022-10-19T14:14:24.291Z,102145.72
2022-10-19T14:17:03.939Z,102146.47
2022-10-19T14:19:52.493Z,102149.31
2022-10-19T14:22:30.082Z,102151.19
2022-10-19T14:25:22.087Z,102138.72
2022-10-19T14:28:04.906Z,102136.97
2022-10-19T14:30:36.379Z,102141.28
2022-10-19T14:33:11.474Z,102128.28
2022-10-19T14:35:45.696Z,102128.03
2022-10-19T14:38:24.026Z,102126.59
2022-10-19T14:40:50.782Z,102128.16
2022-10-19T14:43:25.312Z,102122.69
2022-10-19T14:46:07.168Z,102124.59
2022-10-19T14:48:45.628Z,102127.72
2022-10-19T14:51:47.389Z,102125.28
2022-10-19T14:54:29.263Z,102119.91
2022-10-19T14:57:15.880Z,102119.03
2022-10-19T15:00:01.183Z,102111.28
2022-10-19T15:02:42.658Z,102111.59
2022-10-19T15:05:23.732Z,102113.81
2022-10-19T15:07:51.705Z,102100.50
2022-10-19T15:10:40.930Z,102102.56
2022-10-19T15:13:21.604Z,102096.69
2022-10-19T15:15:53.847Z,102093.19
2022-10-19T15:18:47.753Z,102089.41
2022-10-19T15:21:22.963Z,102092.59
2022-10-19T15:23:52.992Z,102087.41
2022-10-19T15:26:28.509Z,102078.66
2022-10-19T15:29:10.006Z,102079.50
2022-10-19T15:31:36.711Z,102084.22
2022-10-19T15:34:05.357Z,102078.78
2022-10-19T15:36:33.218Z,102074.25
2022-10-19T15:39:24.665Z,102071.50
2022-10-19T15:44:47.265Z,102079.19
2022-10-19T15:50:06.505Z,102069.47
2022-10-19T15:52:36.013Z,102066.69
2022-10-19T16:00:36.977Z,102058.88
2022-10-19T16:05:45.044Z,102062.97
2022-10-19T16:08:14.870Z,102062.63
2022-10-19T16:16:11.656Z,102062.88
2022-10-19T16:18:38.857Z,102051.13
2022-10-19T16:21:06.864Z,102051.88
2022-10-19T16:42:29.673Z,102091.94
2022-10-19T16:45:05.688Z,102098.75
2022-10-19T17:14:49.401Z,102096.91
2022-10-19T17:17:17.534Z,102095.34
2022-10-19T17:28:02.353Z,102091.25
2022-10-19T17:30:29.314Z,102086.94
2022-10-19T18:08:10.224Z,102096.34
2022-10-19T18:32:39.677Z,102096.97
2022-10-19T18:35:10.283Z,102097.84
2022-10-19T18:37:37.006Z,102090.84
2022-10-19T18:40:07.230Z,102085.72
2022-10-19T18:42:36.656Z,102094.59
2022-10-19T18:45:04.683Z,102091.69
2022-10-19T18:47:31.450Z,102088.47
2022-10-19T18:50:01.389Z,102088.94
2022-10-19T18:52:28.400Z,102080.44
2022-10-19T18:54:57.828Z,102092.13
2022-10-19T18:57:28.284Z,102096.91
2022-10-19T19:05:23.252Z,102094.63
2022-10-19T19:07:55.349Z,102091.00
2022-10-19T19:10:22.187Z,102102.47
2022-10-19T19:23:37.881Z,102086.09
2022-10-19T19:28:49.204Z,102071.19
2022-10-19T19:31:19.553Z,102063.41
2022-10-19T19:33:50.651Z,102061.91
2022-10-19T20:46:32.612Z,102045.00
2022-10-19T20:49:01.933Z,102030.78
2022-10-19T20:51:36.729Z,102035.66
2022-10-19T20:54:09.930Z,102033.72
2022-10-19T20:56:40.060Z,102023.19
2022-10-19T20:59:14.724Z,102019.84
2022-10-19T21:01:44.712Z,101998.03
2022-10-19T21:04:14.532Z,102002.09
2022-10-19T21:06:46.025Z,101994.00
2022-10-19T21:09:21.707Z,101990.59
2022-10-19T21:11:51.926Z,102000.31
2022-10-19T21:14:28.758Z,101996.44
2022-10-19T21:17:04.848Z,101983.88
2022-10-19T21:19:31.737Z,101994.81
2022-10-19T21:22:02.329Z,101991.97
2022-10-19T21:24:36.448Z,101986.25
2022-10-19T21:27:08.878Z,101989.19
2022-10-19T21:29:36.896Z,101987.69
2022-10-19T21:32:04.278Z,101985.47
2022-10-19T21:34:32.334Z,101988.50
2022-10-19T21:36:59.887Z,101976.00
2022-10-19T21:39:26.725Z,101975.47
2022-10-19T21:41:53.756Z,101980.16
2022-10-19T21:44:23.479Z,101969.72
2022-10-19T21:46:50.678Z,101970.78
2022-10-19T21:49:18.497Z,101956.25
2022-10-19T21:51:53.708Z,101974.47
2022-10-19T21:54:29.297Z,101960.66
2022-10-19T21:57:01.284Z,101964.44
2022-10-19T21:59:27.970Z,101967.72
2022-10-19T22:01:56.276Z,101959.09
2022-10-19T22:04:23.748Z,101958.59
2022-10-19T22:06:50.785Z,101953.25
2022-10-19T22:09:23.143Z,101965.69
2022-10-19T22:11:49.878Z,101963.00
2022-10-19T22:14:18.072Z,101958.84
2022-10-19T22:16:45.201Z,101959.22
2022-10-19T22:19:12.684Z,101951.00
2022-10-19T22:21:40.460Z,101949.78
2022-10-19T22:24:16.705Z,101942.09
2022-10-19T22:26:50.520Z,101943.97
2022-10-19T22:29:17.512Z,101944.06
2022-10-19T22:31:46.757Z,101948.72
2022-10-19T22:34:17.448Z,101949.78
2022-10-19T22:36:44.945Z,101940.97
2022-10-19T22:39:15.900Z,101953.25
2022-10-19T22:41:52.615Z,101937.50
2022-10-19T22:44:19.246Z,101943.78
2022-10-19T22:46:49.075Z,101942.88
2022-10-19T22:49:18.701Z,101951.13
2022-10-19T22:51:48.492Z,101953.59
2022-10-19T22:54:16.283Z,101949.28
2022-10-19T22:56:46.094Z,101959.06
2022-10-19T22:59:12.733Z,101948.72
2022-10-19T23:01:39.447Z,101957.50
2022-10-19T23:04:06.423Z,101957.88
2022-10-19T23:06:33.216Z,101959.19
2022-10-19T23:08:59.916Z,101953.94
2022-10-19T23:11:26.720Z,101947.63
2022-10-19T23:13:53.581Z,101943.41
2022-10-19T23:16:20.433Z,101934.44
2022-10-19T23:18:47.177Z,101943.38
2022-10-19T23:21:15.083Z,101936.91
2022-10-19T23:23:42.868Z,101937.66
2022-10-19T23:26:20.207Z,101933.00
2022-10-19T23:28:49.820Z,101938.09
2022-10-19T23:31:24.464Z,101929.72
2022-10-19T23:33:53.961Z,101922.06
2022-10-19T23:36:28.925Z,101928.78
2022-10-19T23:39:03.170Z,101919.81
2022-10-19T23:41:29.706Z,101913.41
2022-10-19T23:43:56.362Z,101905.66
2022-10-19T23:46:23.136Z,101906.41
2022-10-19T23:48:49.824Z,101907.47
2022-10-19T23:51:20.711Z,101906.13
2022-10-19T23:53:53.517Z,101906.34
2022-10-19T23:56:28.359Z,101905.72
2022-10-19T23:58:57.892Z,101901.28
